KITH/ITH METAR and TAF weather

Enter ICAO airport designator
Station Type Date Time Source
KITH METAR 2020/10/20 17:35 UTC NOAA

KITH 201735Z 34005KT 3SM RA BR OVC004 10/10 A3024 RMK AO2 PRESFR PNO $


Station Type Date Time Source
KITH Decoded METAR 2020/10/20 17:35 UTC NOAA

Ithaca, Ithaca Tompkins Regional Airport, NY, United States (KITH) 42-29-27N 076-27-30W
Oct 20, 2020 - 01:35 PM EDT / 2020.10.20 1735 UTC
Wind: from the NNW (340 degrees) at 6 MPH (5 KT):0
Visibility: 3 mile(s):0
Sky conditions: overcast
Weather: rain; mist
Temperature: 50 F (10 C)
Dew Point: 50 F (10 C)
Relative Humidity: 100%
Pressure (altimeter): 30.24 in. Hg (1024 hPa)
Pressure tendency: falling rapidly
ob: KITH 201735Z 34005KT 3SM RA BR OVC004 10/10 A3024 RMK AO2 PRESFR PNO
cycle: 17

Station Type Date Time Source
KITH TAF 2020/10/20 18:36 UTC NOAA

TAF KITH 201733Z 2018/2118 32009KT 2SM -RA BR OVC003
TEMPO 2018/2020 1/2SM -SHRA FG
FM202300 02006KT P6SM OVC010
FM210600 13007KT P6SM OVC015
FM210800 16010KT P6SM OVC040
FM211200 17014KT P6SM BKN060

Example: see airport list